createdAt,value
2019-02-08T00:03:27.142Z,100156.19
2019-02-08T00:05:56.550Z,100156.32
2019-02-08T00:11:30.850Z,100156.69
2019-02-08T00:17:01.927Z,100143.77
2019-02-08T00:19:42.264Z,100144.69
2019-02-08T00:22:11.001Z,100142.27
2019-02-08T00:27:42.485Z,100132.48
2019-02-08T00:30:32.858Z,100128.06
2019-02-08T00:33:01.256Z,100123.95
2019-02-08T00:35:29.770Z,100127.12
2019-02-08T00:37:59.112Z,100128.70
2019-02-08T00:40:28.802Z,100128.17
2019-02-08T00:43:17.763Z,100128.28
2019-02-08T00:45:47.087Z,100124.91
2019-02-08T00:48:16.406Z,100130.55
2019-02-08T00:50:45.725Z,100131.77
2019-02-08T00:53:14.144Z,100133.39
2019-02-08T00:55:42.819Z,100127.04
2019-02-08T00:58:11.391Z,100129.64
2019-02-08T01:00:40.718Z,100129.44
2019-02-08T01:03:10.601Z,100118.34
2019-02-08T01:05:39.926Z,100119.06
2019-02-08T01:11:11.187Z,100117.34
2019-02-08T01:13:40.498Z,100116.54
2019-02-08T01:16:09.806Z,100120.09
2019-02-08T01:18:39.134Z,100112.70
2019-02-08T01:21:09.104Z,100110.23
2019-02-08T01:23:41.268Z,100114.09
2019-02-08T01:26:09.017Z,100110.18
2019-02-08T01:28:38.341Z,100117.00
2019-02-08T01:31:06.756Z,100117.19
2019-02-08T01:33:36.072Z,100113.66
2019-02-08T01:36:05.388Z,100117.43
2019-02-08T01:38:33.999Z,100113.43
2019-02-08T01:41:03.612Z,100114.03
2019-02-08T01:43:32.919Z,100105.91
2019-02-08T01:46:02.268Z,100104.91
2019-02-08T01:48:31.587Z,100106.02
2019-02-08T01:51:00.894Z,100101.55
2019-02-08T01:53:30.199Z,100102.98
2019-02-08T01:56:11.733Z,100103.45
2019-02-08T01:58:40.255Z,100100.10
2019-02-08T02:01:08.672Z,100101.80
2019-02-08T02:03:37.188Z,100107.50
2019-02-08T02:06:06.492Z,100105.70
2019-02-08T02:08:35.003Z,100105.70
2019-02-08T02:11:04.462Z,100111.58
2019-02-08T02:13:33.035Z,100099.72
2019-02-08T02:16:04.100Z,100097.27
2019-02-08T02:18:51.757Z,100095.57
2019-02-08T02:21:21.096Z,100090.16
2019-02-08T02:23:55.976Z,100086.27
2019-02-08T02:26:51.287Z,100088.79
2019-02-08T02:29:19.795Z,100093.59
2019-02-08T02:31:48.203Z,100091.59
2019-02-08T02:34:17.601Z,100084.02
2019-02-08T02:36:47.017Z,100092.84
2019-02-08T02:39:16.339Z,100096.70
2019-02-08T02:41:45.652Z,100096.52
2019-02-08T02:44:15.002Z,100098.84
2019-02-08T02:46:44.304Z,100096.34
2019-02-08T02:49:13.620Z,100098.88
2019-02-08T02:51:42.146Z,100102.77
2019-02-08T02:54:11.476Z,100106.31
2019-02-08T02:56:40.016Z,100107.33
2019-02-08T02:59:08.635Z,100107.52
2019-02-08T03:01:38.059Z,100107.59
2019-02-08T03:04:07.555Z,100112.73
2019-02-08T03:06:36.853Z,100108.63
2019-02-08T03:12:09.775Z,100103.36
2019-02-08T03:14:38.228Z,100112.05
2019-02-08T03:17:07.487Z,100109.56
2019-02-08T03:19:36.795Z,100118.22
2019-02-08T03:22:06.108Z,100111.23
2019-02-08T03:24:34.653Z,100108.53
2019-02-08T03:27:03.364Z,100106.09
2019-02-08T03:29:32.676Z,100104.33
2019-02-08T03:32:01.985Z,100102.22
2019-02-08T03:34:31.363Z,100098.33
2019-02-08T03:37:00.681Z,100101.73
2019-02-08T03:39:29.967Z,100105.34
2019-02-08T03:41:59.280Z,100098.73
2019-02-08T03:44:28.638Z,100098.23
2019-02-08T03:46:57.946Z,100094.23
2019-02-08T03:49:27.252Z,100093.59
2019-02-08T03:51:56.557Z,100088.63
2019-02-08T03:54:25.175Z,100084.19
2019-02-08T03:56:53.679Z,100078.62
2019-02-08T03:59:22.091Z,100080.16
2019-02-08T04:01:51.394Z,100080.00
2019-02-08T04:04:19.909Z,100082.73
2019-02-08T04:06:49.232Z,100076.30
2019-02-08T04:09:18.548Z,100075.00
2019-02-08T04:11:47.861Z,100068.72
2019-02-08T04:14:16.253Z,100067.80
2019-02-08T04:16:44.661Z,100065.13
2019-02-08T04:19:14.087Z,100066.50
2019-02-08T04:21:43.410Z,100068.23
2019-02-08T04:24:12.819Z,100072.13
2019-02-08T04:26:42.133Z,100063.44
2019-02-08T04:29:10.648Z,100075.90
2019-02-08T04:31:39.979Z,100073.92
2019-02-08T04:34:09.388Z,100078.66
2019-02-08T04:36:38.711Z,100077.75
2019-02-08T04:39:08.137Z,100081.52
2019-02-08T04:41:36.550Z,100086.53
2019-02-08T04:44:05.861Z,100081.89
2019-02-08T04:46:35.175Z,100079.76
2019-02-08T04:49:04.485Z,100087.43
2019-02-08T04:51:33.800Z,100085.86
2019-02-08T04:57:05.239Z,100092.94
2019-02-08T04:59:34.534Z,100091.17
2019-02-08T05:02:04.052Z,100088.70
2019-02-08T05:04:32.562Z,100087.59
2019-02-08T05:07:01.920Z,100088.42
2019-02-08T05:09:30.427Z,100081.89
2019-02-08T05:11:58.956Z,100092.43
2019-02-08T05:14:27.522Z,100093.95
2019-02-08T05:16:56.820Z,100094.75
2019-02-08T05:19:26.144Z,100096.98
2019-02-08T05:21:55.461Z,100090.59
2019-02-08T05:24:24.762Z,100092.06
2019-02-08T05:26:54.073Z,100095.66
2019-02-08T05:29:22.482Z,100095.93
2019-02-08T05:31:50.995Z,100097.70
2019-02-08T05:34:20.321Z,100102.63
2019-02-08T05:36:49.633Z,100100.89
2019-02-08T05:39:18.947Z,100103.89
2019-02-08T05:41:48.252Z,100105.89
2019-02-08T05:44:17.566Z,100104.22
2019-02-08T05:46:46.892Z,100112.39
2019-02-08T05:49:16.208Z,100110.36
2019-02-08T05:51:45.520Z,100110.14
2019-02-08T05:54:14.856Z,100115.05
2019-02-08T05:56:43.268Z,100112.95
2019-02-08T05:59:31.151Z,100112.35
2019-02-08T06:02:00.455Z,100114.29
2019-02-08T06:04:40.963Z,100122.36
2019-02-08T06:07:09.379Z,100119.73
2019-02-08T06:09:49.245Z,100125.20
2019-02-08T06:12:17.662Z,100127.80
2019-02-08T06:14:47.053Z,100120.09
2019-02-08T06:17:16.366Z,100121.30
2019-02-08T06:19:56.566Z,100123.89
2019-02-08T06:22:25.532Z,100123.30
2019-02-08T06:27:56.895Z,100126.15
2019-02-08T06:30:25.410Z,100119.93
2019-02-08T06:32:54.926Z,100126.97
2019-02-08T06:38:25.239Z,100120.66
2019-02-08T06:40:53.846Z,100125.89
2019-02-08T06:43:23.145Z,100122.17
2019-02-08T06:45:52.460Z,100123.36
2019-02-08T06:48:21.800Z,100117.11
2019-02-08T06:50:51.212Z,100124.91
2019-02-08T06:53:20.547Z,100113.52
2019-02-08T06:55:53.777Z,100118.13
2019-02-08T06:58:48.481Z,100110.83
2019-02-08T07:01:36.471Z,100121.34
2019-02-08T07:04:24.635Z,100119.75
2019-02-08T07:07:04.923Z,100122.06
2019-02-08T07:09:53.712Z,100117.80
2019-02-08T07:12:42.103Z,100127.75
2019-02-08T07:15:30.091Z,100127.42
2019-02-08T07:18:17.958Z,100131.94
2019-02-08T07:21:05.849Z,100126.96
2019-02-08T07:23:53.794Z,100139.33
2019-02-08T07:26:39.545Z,100131.26
2019-02-08T07:29:28.571Z,100132.82
2019-02-08T07:32:16.543Z,100127.88
2019-02-08T07:35:04.633Z,100131.27
2019-02-08T07:37:52.806Z,100130.48
2019-02-08T07:40:42.860Z,100131.66
2019-02-08T07:52:38.439Z,100134.50
2019-02-08T07:58:18.782Z,100141.06
2019-02-08T08:01:02.520Z,100144.44
2019-02-08T08:04:06.275Z,100140.84
2019-02-08T08:06:57.394Z,100144.89
2019-02-08T08:09:54.597Z,100142.72
2019-02-08T08:15:46.978Z,100138.86
2019-02-08T08:27:38.642Z,100147.95
2019-02-08T08:33:30.937Z,100140.77
2019-02-08T08:39:42.881Z,100150.09
2019-02-08T08:42:50.128Z,100149.69
2019-02-08T08:45:57.373Z,100155.28
2019-02-08T08:52:12.298Z,100157.25
2019-02-08T08:55:19.432Z,100160.31
2019-02-08T08:58:13.162Z,100155.92
2019-02-08T09:00:54.782Z,100166.39
2019-02-08T09:04:02.035Z,100163.95
2019-02-08T09:07:16.177Z,100169.13
2019-02-08T09:10:37.159Z,100173.19
2019-02-08T09:13:44.462Z,100171.13
2019-02-08T09:16:51.706Z,100165.21
2019-02-08T09:19:47.773Z,100167.98
2019-02-08T09:22:54.933Z,100175.28
2019-02-08T09:26:02.069Z,100172.98
2019-02-08T09:29:09.327Z,100164.41
2019-02-08T09:35:34.059Z,100161.31
2019-02-08T09:38:44.127Z,100165.34
2019-02-08T09:41:43.535Z,100164.77
2019-02-08T09:44:51.578Z,100157.09
2019-02-08T09:47:58.841Z,100164.33
2019-02-08T09:54:14.789Z,100159.92
2019-02-08T09:57:22.181Z,100159.20
2019-02-08T10:00:30.321Z,100169.09
2019-02-08T10:03:38.776Z,100154.48
2019-02-08T10:06:45.920Z,100149.73
2019-02-08T10:09:53.309Z,100149.83
2019-02-08T10:13:00.555Z,100151.62
2019-02-08T10:16:07.801Z,100144.38
2019-02-08T10:19:14.943Z,100142.55
2019-02-08T10:22:22.255Z,100142.13
2019-02-08T10:25:29.494Z,100136.52
2019-02-08T10:28:36.750Z,100138.61
2019-02-08T10:31:46.945Z,100135.41
2019-02-08T10:34:55.093Z,100132.15
2019-02-08T10:38:03.143Z,100130.28
2019-02-08T10:41:10.451Z,100126.66
2019-02-08T10:44:18.485Z,100126.26
2019-02-08T10:47:25.731Z,100117.14
2019-02-08T10:50:32.968Z,100121.59
2019-02-08T10:53:40.224Z,100118.04
2019-02-08T10:56:47.459Z,100112.11
2019-02-08T10:59:54.722Z,100111.03
2019-02-08T11:03:01.870Z,100108.86
2019-02-08T11:06:09.211Z,100108.07
2019-02-08T11:09:09.257Z,100111.42
2019-02-08T11:12:18.189Z,100099.34
2019-02-08T11:15:28.135Z,100100.88
2019-02-08T11:21:14.989Z,100088.91
2019-02-08T11:23:43.411Z,100087.78
2019-02-08T11:26:12.829Z,100090.08
2019-02-08T11:28:42.152Z,100084.48
2019-02-08T11:31:11.634Z,100081.00
2019-02-08T11:33:40.969Z,100077.52
2019-02-08T11:38:53.325Z,100080.89
2019-02-08T11:41:21.830Z,100074.28
2019-02-08T11:43:51.152Z,100065.20
2019-02-08T11:46:20.474Z,100069.56
2019-02-08T11:48:49.921Z,100062.10
2019-02-08T11:51:19.347Z,100057.51
2019-02-08T11:53:47.871Z,100058.38
2019-02-08T11:56:16.526Z,100058.06
2019-02-08T11:58:45.051Z,100057.53
2019-02-08T12:01:14.383Z,100053.76
2019-02-08T12:03:43.708Z,100055.81
2019-02-08T12:06:12.227Z,100047.68
2019-02-08T12:08:41.544Z,100047.44
2019-02-08T12:11:10.866Z,100049.34
2019-02-08T12:13:40.180Z,100049.28
2019-02-08T12:16:08.891Z,100049.80
2019-02-08T12:18:37.414Z,100045.83
2019-02-08T12:21:06.850Z,100038.79
2019-02-08T12:23:36.265Z,100041.89
2019-02-08T12:26:04.884Z,100033.20
2019-02-08T12:28:34.220Z,100040.64
2019-02-08T12:31:03.771Z,100043.25
2019-02-08T12:33:33.082Z,100041.13
2019-02-08T12:36:01.606Z,100042.14
2019-02-08T12:38:30.215Z,100040.98
2019-02-08T12:40:59.528Z,100041.13
2019-02-08T12:43:28.153Z,100032.98
2019-02-08T12:45:57.823Z,100036.95
2019-02-08T12:48:27.150Z,100037.53
2019-02-08T12:50:56.478Z,100034.17
2019-02-08T12:53:25.811Z,100040.58
2019-02-08T12:55:55.136Z,100038.22
2019-02-08T12:58:24.462Z,100038.91
2019-02-08T13:00:53.782Z,100042.38
2019-02-08T13:03:22.294Z,100043.99
2019-02-08T13:05:51.154Z,100050.64
2019-02-08T13:08:19.726Z,100046.11
2019-02-08T13:10:49.036Z,100048.80
2019-02-08T13:13:18.446Z,100048.44
2019-02-08T13:15:47.757Z,100046.98
2019-02-08T13:18:17.071Z,100049.48
2019-02-08T13:20:46.391Z,100049.61
2019-02-08T13:23:15.707Z,100046.76
2019-02-08T13:25:45.027Z,100049.80
2019-02-08T13:28:13.741Z,100046.30
2019-02-08T13:30:42.364Z,100046.03
2019-02-08T13:33:10.784Z,100038.47
2019-02-08T13:35:39.318Z,100038.79
2019-02-08T13:38:08.655Z,100041.40
2019-02-08T13:40:37.938Z,100046.55
2019-02-08T13:43:07.252Z,100045.07
2019-02-08T13:45:36.664Z,100039.72
2019-02-08T13:48:06.507Z,100036.94
2019-02-08T13:50:35.267Z,100034.70
2019-02-08T13:53:04.023Z,100028.59
2019-02-08T13:55:32.428Z,100024.50
2019-02-08T13:58:01.658Z,100035.06
2019-02-08T14:00:32.565Z,100034.56
2019-02-08T14:03:01.196Z,100034.55
2019-02-08T14:05:30.233Z,100033.50
2019-02-08T14:07:59.554Z,100038.84
2019-02-08T14:10:28.073Z,100034.30
2019-02-08T14:12:57.507Z,100035.92
2019-02-08T14:15:27.732Z,100035.08
2019-02-08T14:17:56.233Z,100041.73
2019-02-08T14:20:25.790Z,100040.93
2019-02-08T14:22:55.267Z,100042.48
2019-02-08T14:28:27.169Z,100047.61
2019-02-08T14:30:56.635Z,100042.76
2019-02-08T14:33:25.951Z,100041.75
2019-02-08T14:35:55.903Z,100047.42
2019-02-08T14:38:44.499Z,100042.08
2019-02-08T14:41:13.819Z,100045.31
2019-02-08T14:43:42.430Z,100046.74
2019-02-08T14:46:11.751Z,100046.05
2019-02-08T14:48:41.252Z,100044.58
2019-02-08T14:51:09.888Z,100046.00
2019-02-08T14:53:38.406Z,100052.45
2019-02-08T14:56:07.816Z,100048.66
2019-02-08T14:58:37.124Z,100053.45
2019-02-08T15:01:06.449Z,100058.09
2019-02-08T15:03:35.766Z,100057.48
2019-02-08T15:06:05.195Z,100056.81
2019-02-08T15:08:34.493Z,100057.48
2019-02-08T15:11:03.927Z,100060.30
2019-02-08T15:13:33.235Z,100062.10
2019-02-08T15:16:01.850Z,100065.34
2019-02-08T15:18:31.167Z,100062.17
2019-02-08T15:21:00.474Z,100059.47
2019-02-08T15:23:29.012Z,100066.63
2019-02-08T15:25:58.331Z,100066.19
2019-02-08T15:28:27.838Z,100070.09
2019-02-08T15:30:57.142Z,100068.94
2019-02-08T15:33:26.607Z,100067.98
2019-02-08T15:35:55.925Z,100070.30
2019-02-08T15:38:24.439Z,100074.44
2019-02-08T15:40:54.512Z,100080.61
2019-02-08T15:43:23.536Z,100075.47
2019-02-08T15:45:57.561Z,100074.68
2019-02-08T15:48:26.267Z,100080.07
2019-02-08T15:50:55.584Z,100081.64
2019-02-08T15:53:24.915Z,100081.20
2019-02-08T15:55:56.936Z,100086.86
2019-02-08T15:58:25.555Z,100090.92
2019-02-08T16:00:54.977Z,100094.17
2019-02-08T16:03:23.474Z,100092.27
2019-02-08T16:05:52.802Z,100100.60
2019-02-08T16:08:22.114Z,100098.27
2019-02-08T16:10:51.558Z,100105.80
2019-02-08T16:13:20.883Z,100104.81
2019-02-08T16:15:50.221Z,100103.77
2019-02-08T16:18:19.556Z,100114.33
2019-02-08T16:20:48.869Z,100110.65
2019-02-08T16:23:18.198Z,100113.36
2019-02-08T16:25:47.504Z,100111.36
2019-02-08T16:28:16.010Z,100118.56
2019-02-08T16:30:45.414Z,100118.67
2019-02-08T16:33:14.828Z,100125.03
2019-02-08T16:35:44.245Z,100122.97
2019-02-08T16:38:13.650Z,100124.56
2019-02-08T16:40:43.078Z,100135.09
2019-02-08T16:43:12.524Z,100134.50
2019-02-08T16:48:43.866Z,100139.63
2019-02-08T16:51:13.187Z,100145.33
2019-02-08T16:53:41.712Z,100141.69
2019-02-08T16:56:11.211Z,100149.58
2019-02-08T16:58:40.529Z,100152.58
2019-02-08T17:01:09.860Z,100155.20
2019-02-08T17:03:39.180Z,100156.86
2019-02-08T17:06:07.731Z,100156.61
2019-02-08T17:08:36.240Z,100167.05
2019-02-08T17:11:04.961Z,100163.58
2019-02-08T17:13:34.275Z,100161.61
2019-02-08T17:19:06.509Z,100166.97
2019-02-08T17:21:35.836Z,100160.69
2019-02-08T17:24:05.255Z,100166.25
2019-02-08T17:26:34.600Z,100160.13
2019-02-08T17:29:04.022Z,100162.75
2019-02-08T17:31:33.340Z,100162.86
2019-02-08T17:34:02.761Z,100161.98
2019-02-08T17:36:32.090Z,100165.83
2019-02-08T17:39:01.395Z,100169.37
2019-02-08T17:41:30.007Z,100165.94
2019-02-08T17:43:59.396Z,100169.88
2019-02-08T17:46:28.733Z,100173.17
2019-02-08T17:48:58.052Z,100177.37
2019-02-08T17:51:27.410Z,100179.49
2019-02-08T17:53:56.812Z,100183.30
2019-02-08T17:56:26.128Z,100187.68
2019-02-08T17:58:54.706Z,100186.91
2019-02-08T18:01:24.014Z,100194.98
2019-02-08T18:03:52.640Z,100193.19
2019-02-08T18:06:21.946Z,100188.17
2019-02-08T18:08:51.264Z,100184.20
2019-02-08T18:11:19.717Z,100186.41
2019-02-08T18:13:49.026Z,100188.63
2019-02-08T18:16:18.428Z,100193.34
2019-02-08T18:18:47.946Z,100191.31
2019-02-08T18:21:17.306Z,100202.89
2019-02-08T18:23:46.675Z,100200.09
2019-02-08T18:26:15.987Z,100202.17
2019-02-08T18:28:45.312Z,100200.91
2019-02-08T18:31:13.928Z,100188.69
2019-02-08T18:33:42.446Z,100189.87
2019-02-08T18:36:11.762Z,100191.30
2019-02-08T18:38:41.096Z,100187.72
2019-02-08T18:41:10.412Z,100194.34
2019-02-08T18:43:39.735Z,100194.45
2019-02-08T18:46:09.038Z,100193.63
2019-02-08T18:48:37.850Z,100196.76
2019-02-08T18:51:07.183Z,100198.30
2019-02-08T18:53:36.510Z,100194.44
2019-02-08T18:56:05.112Z,100195.91
2019-02-08T18:58:34.431Z,100200.11
2019-02-08T19:04:06.157Z,100202.52
2019-02-08T19:06:35.481Z,100204.59
2019-02-08T19:09:07.497Z,100207.36
2019-02-08T19:11:36.218Z,100205.31
2019-02-08T19:17:07.101Z,100204.74
2019-02-08T19:19:35.710Z,100206.68
2019-02-08T19:24:46.390Z,100214.98
2019-02-08T19:27:15.690Z,100218.65
2019-02-08T19:29:45.033Z,100219.17
2019-02-08T19:32:14.361Z,100219.41
2019-02-08T19:34:43.688Z,100224.78
2019-02-08T19:37:13.034Z,100220.58
2019-02-08T19:39:42.351Z,100224.48
2019-02-08T19:42:10.868Z,100232.78
2019-02-08T19:44:39.280Z,100233.38
2019-02-08T19:47:07.788Z,100233.91
2019-02-08T19:49:37.105Z,100234.45
2019-02-08T19:52:06.513Z,100232.00
2019-02-08T19:54:35.849Z,100234.13
2019-02-08T20:00:13.139Z,100234.38
2019-02-08T20:02:41.779Z,100238.83
2019-02-08T20:08:14.681Z,100241.25
2019-02-08T20:10:45.806Z,100239.47
2019-02-08T20:16:16.790Z,100234.38
2019-02-08T20:18:46.132Z,100235.88
2019-02-08T20:21:15.477Z,100239.59
2019-02-08T20:23:44.903Z,100236.13
2019-02-08T20:26:14.228Z,100235.31
2019-02-08T20:28:43.551Z,100231.05
2019-02-08T20:31:12.968Z,100231.31
2019-02-08T20:33:42.281Z,100232.22
2019-02-08T20:39:13.586Z,100238.05
2019-02-08T20:41:42.923Z,100241.95
2019-02-08T20:44:11.543Z,100238.94
2019-02-08T20:46:40.064Z,100240.26
2019-02-08T20:49:09.390Z,100241.21
2019-02-08T20:51:38.710Z,100241.14
2019-02-08T20:54:08.046Z,100242.36
2019-02-08T20:56:37.378Z,100242.64
2019-02-08T20:59:05.944Z,100244.16
2019-02-08T21:01:35.367Z,100235.25
2019-02-08T21:04:04.386Z,100239.95
2019-02-08T21:06:32.896Z,100241.56
2019-02-08T21:09:14.067Z,100242.95
2019-02-08T21:11:42.588Z,100245.82
2019-02-08T21:14:12.140Z,100234.52
2019-02-08T21:16:42.361Z,100238.89
2019-02-08T21:19:10.878Z,100237.23
2019-02-08T21:21:40.288Z,100241.34
2019-02-08T21:24:08.925Z,100245.39
2019-02-08T21:26:37.436Z,100246.34
2019-02-08T21:29:06.055Z,100246.42
2019-02-08T21:31:34.470Z,100243.05
2019-02-08T21:34:03.889Z,100244.93
2019-02-08T21:36:38.790Z,100251.24
2019-02-08T21:39:22.435Z,100241.89
2019-02-08T21:41:51.750Z,100238.84
2019-02-08T21:44:20.272Z,100243.39
2019-02-08T21:46:48.780Z,100243.08
2019-02-08T21:49:17.387Z,100243.07
2019-02-08T21:51:46.308Z,100247.29
2019-02-08T21:54:15.672Z,100241.81
2019-02-08T21:56:44.983Z,100241.84
2019-02-08T21:59:14.287Z,100238.84
2019-02-08T22:01:55.270Z,100243.22
2019-02-08T22:04:23.880Z,100239.05
2019-02-08T22:06:53.223Z,100245.90
2019-02-08T22:09:21.910Z,100244.59
2019-02-08T22:11:51.234Z,100244.77
2019-02-08T22:14:19.728Z,100241.23
2019-02-08T22:16:48.248Z,100240.98
2019-02-08T22:19:17.558Z,100241.59
2019-02-08T22:21:46.872Z,100238.92
2019-02-08T22:24:16.181Z,100243.73
2019-02-08T22:26:45.490Z,100238.16
2019-02-08T22:29:14.918Z,100234.39
2019-02-08T22:31:43.326Z,100238.52
2019-02-08T22:34:11.808Z,100233.52
2019-02-08T22:36:40.462Z,100238.02
2019-02-08T22:39:10.179Z,100236.71
2019-02-08T22:41:38.790Z,100241.52
2019-02-08T22:44:08.098Z,100241.56
2019-02-08T22:46:37.395Z,100245.35
2019-02-08T22:49:06.808Z,100240.91
2019-02-08T22:51:36.108Z,100245.14
2019-02-08T22:54:05.418Z,100247.27
2019-02-08T22:56:34.746Z,100243.00
2019-02-08T22:59:04.342Z,100247.20
2019-02-08T23:04:18.986Z,100242.90
2019-02-08T23:06:48.295Z,100247.88
2019-02-08T23:09:36.977Z,100244.37
2019-02-08T23:12:06.296Z,100248.28
2019-02-08T23:14:35.600Z,100242.28
2019-02-08T23:17:05.103Z,100244.67
2019-02-08T23:19:34.415Z,100248.79
2019-02-08T23:22:03.230Z,100243.52
2019-02-08T23:24:31.757Z,100241.13
2019-02-08T23:27:01.137Z,100243.55
2019-02-08T23:29:30.663Z,100237.16
2019-02-08T23:31:59.970Z,100246.07
2019-02-08T23:34:29.286Z,100242.41
2019-02-08T23:36:58.584Z,100245.48
2019-02-08T23:39:27.932Z,100247.23
2019-02-08T23:41:57.221Z,100244.02
2019-02-08T23:44:26.534Z,100242.28
2019-02-08T23:46:55.040Z,100245.43
2019-02-08T23:49:24.358Z,100245.83
2019-02-08T23:51:52.765Z,100248.43
2019-02-08T23:54:22.079Z,100249.14
2019-02-08T23:56:51.399Z,100249.19
2019-02-08T23:59:20.727Z,100246.27
